sensor_id;sensor_type;location;lat;lon;timestamp;temperature;humidity
72576;DHT22;60613;48.658;2.328;2023-05-29T06:02:40;24.90;44.30
72576;DHT22;60613;48.658;2.328;2023-05-29T06:05:08;24.80;45.40
72576;DHT22;60613;48.658;2.328;2023-05-29T06:07:34;24.90;45.20
72576;DHT22;60613;48.658;2.328;2023-05-29T06:10:01;24.90;45.20
72576;DHT22;60613;48.658;2.328;2023-05-29T06:12:26;24.90;45.20
72576;DHT22;60613;48.658;2.328;2023-05-29T06:14:52;24.90;45.00
72576;DHT22;60613;48.658;2.328;2023-05-29T06:17:18;24.90;45.00
72576;DHT22;60613;48.658;2.328;2023-05-29T06:19:44;24.90;45.00
72576;DHT22;60613;48.658;2.328;2023-05-29T06:22:09;24.90;45.00
72576;DHT22;60613;48.658;2.328;2023-05-29T06:24:35;25.00;44.90
72576;DHT22;60613;48.658;2.328;2023-05-29T06:27:00;24.90;46.00
72576;DHT22;60613;48.658;2.328;2023-05-29T06:29:27;24.90;44.80
72576;DHT22;60613;48.658;2.328;2023-05-29T06:31:52;25.00;44.80
72576;DHT22;60613;48.658;2.328;2023-05-29T06:34:18;25.00;44.90
72576;DHT22;60613;48.658;2.328;2023-05-29T06:36:43;24.90;44.90
72576;DHT22;60613;48.658;2.328;2023-05-29T06:39:09;24.90;44.80
72576;DHT22;60613;48.658;2.328;2023-05-29T06:41:35;25.00;44.80
72576;DHT22;60613;48.658;2.328;2023-05-29T06:44:01;25.00;44.90
72576;DHT22;60613;48.658;2.328;2023-05-29T06:46:27;25.00;44.80
72576;DHT22;60613;48.658;2.328;2023-05-29T06:48:52;25.00;44.70
72576;DHT22;60613;48.658;2.328;2023-05-29T06:51:18;25.00;44.60
72576;DHT22;60613;48.658;2.328;2023-05-29T06:53:43;25.00;44.70
72576;DHT22;60613;48.658;2.328;2023-05-29T06:56:10;25.00;44.70
72576;DHT22;60613;48.658;2.328;2023-05-29T06:58:35;25.00;44.70
72576;DHT22;60613;48.658;2.328;2023-05-29T07:01:01;25.00;44.70
72576;DHT22;60613;48.658;2.328;2023-05-29T07:03:27;25.00;44.70
72576;DHT22;60613;48.658;2.328;2023-05-29T07:05:53;25.00;44.70
72576;DHT22;60613;48.658;2.328;2023-05-29T07:08:19;25.00;42.00
72576;DHT22;60613;48.658;2.328;2023-05-29T07:10:45;24.90;41.70
72576;DHT22;60613;48.658;2.328;2023-05-29T07:13:14;24.90;40.90
72576;DHT22;60613;48.658;2.328;2023-05-29T07:15:40;24.80;41.00
72576;DHT22;60613;48.658;2.328;2023-05-29T07:18:05;24.80;40.80
72576;DHT22;60613;48.658;2.328;2023-05-29T07:20:31;24.70;40.90
72576;DHT22;60613;48.658;2.328;2023-05-29T07:22:57;24.70;40.90
72576;DHT22;60613;48.658;2.328;2023-05-29T07:25:22;24.60;41.00
72576;DHT22;60613;48.658;2.328;2023-05-29T07:27:48;24.60;40.90
72576;DHT22;60613;48.658;2.328;2023-05-29T07:30:13;24.50;41.10
72576;DHT22;60613;48.658;2.328;2023-05-29T07:32:39;24.50;41.10
72576;DHT22;60613;48.658;2.328;2023-05-29T07:35:05;24.50;41.10
72576;DHT22;60613;48.658;2.328;2023-05-29T07:37:31;24.40;40.80
72576;DHT22;60613;48.658;2.328;2023-05-29T07:39:57;24.40;41.00
72576;DHT22;60613;48.658;2.328;2023-05-29T07:42:23;24.30;41.90
72576;DHT22;60613;48.658;2.328;2023-05-29T07:44:48;24.40;42.50
72576;DHT22;60613;48.658;2.328;2023-05-29T07:47:14;24.40;42.00
72576;DHT22;60613;48.658;2.328;2023-05-29T07:49:40;24.30;41.70
72576;DHT22;60613;48.658;2.328;2023-05-29T07:52:05;24.10;41.80
72576;DHT22;60613;48.658;2.328;2023-05-29T07:54:32;24.10;42.30
72576;DHT22;60613;48.658;2.328;2023-05-29T07:57:01;24.00;43.10
72576;DHT22;60613;48.658;2.328;2023-05-29T07:59:38;24.10;43.20
72576;DHT22;60613;48.658;2.328;2023-05-29T08:02:06;24.20;43.20
72576;DHT22;60613;48.658;2.328;2023-05-29T08:04:32;24.30;43.10
72576;DHT22;60613;48.658;2.328;2023-05-29T08:07:01;24.30;43.10
72576;DHT22;60613;48.658;2.328;2023-05-29T08:09:29;24.40;43.20
72576;DHT22;60613;48.658;2.328;2023-05-29T08:11:54;24.50;43.10
72576;DHT22;60613;48.658;2.328;2023-05-29T08:14:20;24.50;43.00
72576;DHT22;60613;48.658;2.328;2023-05-29T08:16:46;24.60;43.10
72576;DHT22;60613;48.658;2.328;2023-05-29T08:19:11;24.70;43.00
72576;DHT22;60613;48.658;2.328;2023-05-29T08:21:37;24.80;44.50
72576;DHT22;60613;48.658;2.328;2023-05-29T08:24:03;24.70;43.90
72576;DHT22;60613;48.658;2.328;2023-05-29T08:26:30;24.70;44.50
72576;DHT22;60613;48.658;2.328;2023-05-29T08:28:56;24.80;46.60
72576;DHT22;60613;48.658;2.328;2023-05-29T08:31:22;24.80;46.90
72576;DHT22;60613;48.658;2.328;2023-05-29T08:33:51;24.90;47.00
72576;DHT22;60613;48.658;2.328;2023-05-29T08:36:17;24.90;47.30
72576;DHT22;60613;48.658;2.328;2023-05-29T08:38:43;24.90;46.80
72576;DHT22;60613;48.658;2.328;2023-05-29T08:41:10;24.90;46.10
72576;DHT22;60613;48.658;2.328;2023-05-29T08:43:41;24.90;46.70
72576;DHT22;60613;48.658;2.328;2023-05-29T08:46:07;24.90;46.70
72576;DHT22;60613;48.658;2.328;2023-05-29T08:48:36;24.90;46.30
72576;DHT22;60613;48.658;2.328;2023-05-29T08:51:02;25.00;46.40
72576;DHT22;60613;48.658;2.328;2023-05-29T08:53:29;25.00;46.50
72576;DHT22;60613;48.658;2.328;2023-05-29T08:55:57;25.00;45.90
72576;DHT22;60613;48.658;2.328;2023-05-29T08:58:23;25.10;45.90
72576;DHT22;60613;48.658;2.328;2023-05-29T09:00:50;25.10;46.60
72576;DHT22;60613;48.658;2.328;2023-05-29T09:03:16;25.10;46.50
72576;DHT22;60613;48.658;2.328;2023-05-29T09:05:44;25.00;47.10
72576;DHT22;60613;48.658;2.328;2023-05-29T09:08:10;25.10;46.10
72576;DHT22;60613;48.658;2.328;2023-05-29T09:10:44;25.00;46.80
72576;DHT22;60613;48.658;2.328;2023-05-29T09:13:10;25.00;46.60
72576;DHT22;60613;48.658;2.328;2023-05-29T09:15:37;25.00;46.00
72576;DHT22;60613;48.658;2.328;2023-05-29T09:18:05;25.00;45.60
72576;DHT22;60613;48.658;2.328;2023-05-29T09:20:31;25.10;44.70
72576;DHT22;60613;48.658;2.328;2023-05-29T09:22:58;25.10;45.90
72576;DHT22;60613;48.658;2.328;2023-05-29T09:25:28;25.20;44.20
72576;DHT22;60613;48.658;2.328;2023-05-29T09:28:02;25.20;45.00
72576;DHT22;60613;48.658;2.328;2023-05-29T09:32:59;25.30;45.00
72576;DHT22;60613;48.658;2.328;2023-05-29T09:35:25;25.30;44.30
72576;DHT22;60613;48.658;2.328;2023-05-29T09:37:52;25.40;44.70
72576;DHT22;60613;48.658;2.328;2023-05-29T09:40:18;25.40;44.60
72576;DHT22;60613;48.658;2.328;2023-05-29T09:42:43;25.40;44.10
72576;DHT22;60613;48.658;2.328;2023-05-29T09:45:09;25.40;44.60
72576;DHT22;60613;48.658;2.328;2023-05-29T09:47:35;25.50;44.40
72576;DHT22;60613;48.658;2.328;2023-05-29T09:50:01;25.50;44.40
72576;DHT22;60613;48.658;2.328;2023-05-29T09:52:29;25.50;44.50
72576;DHT22;60613;48.658;2.328;2023-05-29T09:54:55;25.60;44.10
72576;DHT22;60613;48.658;2.328;2023-05-29T09:57:23;25.70;43.80
72576;DHT22;60613;48.658;2.328;2023-05-29T09:59:52;25.70;44.10
72576;DHT22;60613;48.658;2.328;2023-05-29T10:02:18;25.60;44.20
72576;DHT22;60613;48.658;2.328;2023-05-29T10:04:44;25.60;42.50
72576;DHT22;60613;48.658;2.328;2023-05-29T10:07:27;25.60;41.80
72576;DHT22;60613;48.658;2.328;2023-05-29T10:10:04;25.50;42.00
72576;DHT22;60613;48.658;2.328;2023-05-29T10:12:38;25.50;41.60
72576;DHT22;60613;48.658;2.328;2023-05-29T10:15:15;25.50;40.80
72576;DHT22;60613;48.658;2.328;2023-05-29T10:17:59;25.50;41.20
72576;DHT22;60613;48.658;2.328;2023-05-29T10:20:26;25.50;40.90
72576;DHT22;60613;48.658;2.328;2023-05-29T10:22:55;25.40;41.50
72576;DHT22;60613;48.658;2.328;2023-05-29T10:25:21;25.40;41.30
72576;DHT22;60613;48.658;2.328;2023-05-29T10:27:48;25.40;41.00
72576;DHT22;60613;48.658;2.328;2023-05-29T10:38:33;25.40;40.20
72576;DHT22;60613;48.658;2.328;2023-05-29T10:43:54;25.40;40.50
72576;DHT22;60613;48.658;2.328;2023-05-29T10:46:20;25.40;40.70
72576;DHT22;60613;48.658;2.328;2023-05-29T10:48:49;25.40;40.50
72576;DHT22;60613;48.658;2.328;2023-05-29T10:51:25;25.40;40.60
72576;DHT22;60613;48.658;2.328;2023-05-29T10:53:51;25.30;40.70
72576;DHT22;60613;48.658;2.328;2023-05-29T10:56:22;25.20;41.10
72576;DHT22;60613;48.658;2.328;2023-05-29T10:58:54;25.20;41.70
72576;DHT22;60613;48.658;2.328;2023-05-29T11:01:22;25.10;42.10
72576;DHT22;60613;48.658;2.328;2023-05-29T11:03:48;25.10;41.70
72576;DHT22;60613;48.658;2.328;2023-05-29T11:06:21;25.20;41.80
72576;DHT22;60613;48.658;2.328;2023-05-29T11:08:56;25.20;41.80
72576;DHT22;60613;48.658;2.328;2023-05-29T11:11:29;25.10;41.90
72576;DHT22;60613;48.658;2.328;2023-05-29T11:13:56;25.10;42.10
72576;DHT22;60613;48.658;2.328;2023-05-29T11:18:51;25.10;42.50
72576;DHT22;60613;48.658;2.328;2023-05-29T11:24:30;25.10;42.70
72576;DHT22;60613;48.658;2.328;2023-05-29T11:26:56;25.10;42.90
72576;DHT22;60613;48.658;2.328;2023-05-29T11:29:26;25.00;43.10
72576;DHT22;60613;48.658;2.328;2023-05-29T11:31:58;25.00;43.10
72576;DHT22;60613;48.658;2.328;2023-05-29T11:34:27;25.00;44.50
72576;DHT22;60613;48.658;2.328;2023-05-29T11:36:53;25.10;43.30
72576;DHT22;60613;48.658;2.328;2023-05-29T11:39:19;25.00;43.40
72576;DHT22;60613;48.658;2.328;2023-05-29T11:41:46;25.00;43.40
72576;DHT22;60613;48.658;2.328;2023-05-29T11:44:15;25.00;43.50
72576;DHT22;60613;48.658;2.328;2023-05-29T11:46:40;25.10;43.50
72576;DHT22;60613;48.658;2.328;2023-05-29T11:49:06;25.00;43.60
72576;DHT22;60613;48.658;2.328;2023-05-29T11:51:32;25.10;43.50
72576;DHT22;60613;48.658;2.328;2023-05-29T11:53:57;25.20;42.80
72576;DHT22;60613;48.658;2.328;2023-05-29T11:56:27;25.40;42.50
72576;DHT22;60613;48.658;2.328;2023-05-29T11:58:53;25.40;42.10
72576;DHT22;60613;48.658;2.328;2023-05-29T12:01:24;25.50;42.30
72576;DHT22;60613;48.658;2.328;2023-05-29T12:03:50;25.60;42.70
72576;DHT22;60613;48.658;2.328;2023-05-29T12:06:16;25.70;42.40
72576;DHT22;60613;48.658;2.328;2023-05-29T12:08:56;25.80;42.30
72576;DHT22;60613;48.658;2.328;2023-05-29T12:11:24;25.80;42.30
72576;DHT22;60613;48.658;2.328;2023-05-29T12:14:01;25.80;42.20
72576;DHT22;60613;48.658;2.328;2023-05-29T12:16:28;25.80;42.10
72576;DHT22;60613;48.658;2.328;2023-05-29T12:18:55;25.80;42.20
72576;DHT22;60613;48.658;2.328;2023-05-29T12:21:22;25.80;42.20
72576;DHT22;60613;48.658;2.328;2023-05-29T12:23:51;25.90;42.20
72576;DHT22;60613;48.658;2.328;2023-05-29T12:26:17;25.90;42.30
72576;DHT22;60613;48.658;2.328;2023-05-29T12:28:45;25.90;42.40
72576;DHT22;60613;48.658;2.328;2023-05-29T12:31:11;26.00;42.40
72576;DHT22;60613;48.658;2.328;2023-05-29T12:33:42;26.00;42.50
72576;DHT22;60613;48.658;2.328;2023-05-29T12:36:09;26.00;42.50
72576;DHT22;60613;48.658;2.328;2023-05-29T12:38:49;26.10;42.40
72576;DHT22;60613;48.658;2.328;2023-05-29T12:41:32;26.10;42.30
72576;DHT22;60613;48.658;2.328;2023-05-29T12:44:02;26.10;42.30
72576;DHT22;60613;48.658;2.328;2023-05-29T12:46:38;26.10;43.30
72576;DHT22;60613;48.658;2.328;2023-05-29T12:49:14;26.10;42.10
72576;DHT22;60613;48.658;2.328;2023-05-29T12:51:41;26.10;42.00
72576;DHT22;60613;48.658;2.328;2023-05-29T12:54:09;26.10;42.00
72576;DHT22;60613;48.658;2.328;2023-05-29T12:56:35;26.10;42.10
72576;DHT22;60613;48.658;2.328;2023-05-29T12:59:01;26.10;42.00
72576;DHT22;60613;48.658;2.328;2023-05-29T13:01:26;26.10;42.10
72576;DHT22;60613;48.658;2.328;2023-05-29T13:03:52;26.10;42.30
72576;DHT22;60613;48.658;2.328;2023-05-29T13:06:18;26.20;42.40
72576;DHT22;60613;48.658;2.328;2023-05-29T13:08:43;26.30;42.70
72576;DHT22;60613;48.658;2.328;2023-05-29T13:11:09;26.30;42.30
72576;DHT22;60613;48.658;2.328;2023-05-29T13:13:35;26.30;42.50
72576;DHT22;60613;48.658;2.328;2023-05-29T13:16:00;26.40;42.50
72576;DHT22;60613;48.658;2.328;2023-05-29T13:18:26;26.30;41.70
72576;DHT22;60613;48.658;2.328;2023-05-29T13:20:51;26.30;42.20
72576;DHT22;60613;48.658;2.328;2023-05-29T13:23:17;26.20;42.20
72576;DHT22;60613;48.658;2.328;2023-05-29T13:25:42;26.20;42.30
72576;DHT22;60613;48.658;2.328;2023-05-29T13:28:08;26.20;42.10
72576;DHT22;60613;48.658;2.328;2023-05-29T13:30:34;26.20;42.30
72576;DHT22;60613;48.658;2.328;2023-05-29T13:32:59;26.20;41.80
72576;DHT22;60613;48.658;2.328;2023-05-29T13:35:25;26.20;42.10
72576;DHT22;60613;48.658;2.328;2023-05-29T13:37:50;26.20;42.50
72576;DHT22;60613;48.658;2.328;2023-05-29T13:40:16;26.20;42.50
72576;DHT22;60613;48.658;2.328;2023-05-29T13:42:42;26.20;42.40
72576;DHT22;60613;48.658;2.328;2023-05-29T13:45:08;26.20;42.60
72576;DHT22;60613;48.658;2.328;2023-05-29T13:47:35;26.20;42.50
72576;DHT22;60613;48.658;2.328;2023-05-29T13:50:01;26.20;42.40
72576;DHT22;60613;48.658;2.328;2023-05-29T13:52:27;26.20;42.40
72576;DHT22;60613;48.658;2.328;2023-05-29T13:54:53;26.20;42.50
72576;DHT22;60613;48.658;2.328;2023-05-29T13:57:18;26.20;42.70
72576;DHT22;60613;48.658;2.328;2023-05-29T13:59:44;26.20;42.60
72576;DHT22;60613;48.658;2.328;2023-05-29T14:02:11;26.20;42.60
72576;DHT22;60613;48.658;2.328;2023-05-29T14:04:37;26.20;42.80
72576;DHT22;60613;48.658;2.328;2023-05-29T14:07:04;26.30;42.80
72576;DHT22;60613;48.658;2.328;2023-05-29T14:09:29;26.30;42.80
72576;DHT22;60613;48.658;2.328;2023-05-29T14:11:57;26.30;42.80
72576;DHT22;60613;48.658;2.328;2023-05-29T14:14:23;26.30;42.90
72576;DHT22;60613;48.658;2.328;2023-05-29T14:16:49;26.30;42.80
72576;DHT22;60613;48.658;2.328;2023-05-29T14:19:16;26.30;42.90
72576;DHT22;60613;48.658;2.328;2023-05-29T14:21:41;26.30;42.80
72576;DHT22;60613;48.658;2.328;2023-05-29T14:24:07;26.30;43.00
72576;DHT22;60613;48.658;2.328;2023-05-29T14:26:33;26.30;42.90
72576;DHT22;60613;48.658;2.328;2023-05-29T14:28:58;26.30;42.90
72576;DHT22;60613;48.658;2.328;2023-05-29T14:31:24;26.30;43.10
72576;DHT22;60613;48.658;2.328;2023-05-29T14:33:50;26.30;42.90
72576;DHT22;60613;48.658;2.328;2023-05-29T14:36:15;26.30;42.90
72576;DHT22;60613;48.658;2.328;2023-05-29T14:38:41;26.30;43.00
72576;DHT22;60613;48.658;2.328;2023-05-29T14:41:08;26.30;43.00
72576;DHT22;60613;48.658;2.328;2023-05-29T14:43:33;26.30;42.80
72576;DHT22;60613;48.658;2.328;2023-05-29T14:45:59;26.40;43.00
72576;DHT22;60613;48.658;2.328;2023-05-29T14:48:25;26.40;42.70
72576;DHT22;60613;48.658;2.328;2023-05-29T14:50:50;26.40;42.90
72576;DHT22;60613;48.658;2.328;2023-05-29T14:53:16;26.40;43.00
72576;DHT22;60613;48.658;2.328;2023-05-29T14:55:41;26.40;43.00
72576;DHT22;60613;48.658;2.328;2023-05-29T14:58:07;26.30;43.00
72576;DHT22;60613;48.658;2.328;2023-05-29T15:00:33;26.40;42.90
72576;DHT22;60613;48.658;2.328;2023-05-29T15:02:58;26.40;42.70
72576;DHT22;60613;48.658;2.328;2023-05-29T15:05:28;26.40;42.70
72576;DHT22;60613;48.658;2.328;2023-05-29T15:07:54;26.40;42.70
72576;DHT22;60613;48.658;2.328;2023-05-29T15:10:23;26.40;42.80
72576;DHT22;60613;48.658;2.328;2023-05-29T15:12:50;26.40;44.00
72576;DHT22;60613;48.658;2.328;2023-05-29T15:15:22;26.40;42.70
72576;DHT22;60613;48.658;2.328;2023-05-29T15:17:48;26.40;42.70
72576;DHT22;60613;48.658;2.328;2023-05-29T15:20:16;26.50;42.70
72576;DHT22;60613;48.658;2.328;2023-05-29T15:22:44;26.50;42.70
72576;DHT22;60613;48.658;2.328;2023-05-29T15:25:10;26.50;42.70
72576;DHT22;60613;48.658;2.328;2023-05-29T15:27:35;26.50;42.70
72576;DHT22;60613;48.658;2.328;2023-05-29T15:30:12;26.50;42.70
72576;DHT22;60613;48.658;2.328;2023-05-29T15:32:41;26.50;42.60
72576;DHT22;60613;48.658;2.328;2023-05-29T15:35:08;26.50;42.60
72576;DHT22;60613;48.658;2.328;2023-05-29T15:37:34;26.50;42.70
72576;DHT22;60613;48.658;2.328;2023-05-29T15:40:00;26.60;42.90
72576;DHT22;60613;48.658;2.328;2023-05-29T15:42:27;26.60;42.80
72576;DHT22;60613;48.658;2.328;2023-05-29T15:44:52;26.60;42.60
72576;DHT22;60613;48.658;2.328;2023-05-29T15:47:18;26.60;42.60
72576;DHT22;60613;48.658;2.328;2023-05-29T15:49:43;26.60;42.80
72576;DHT22;60613;48.658;2.328;2023-05-29T15:52:09;26.60;42.60
72576;DHT22;60613;48.658;2.328;2023-05-29T15:54:35;26.60;42.60
72576;DHT22;60613;48.658;2.328;2023-05-29T15:57:00;26.60;42.50
72576;DHT22;60613;48.658;2.328;2023-05-29T15:59:28;26.60;42.30
72576;DHT22;60613;48.658;2.328;2023-05-29T16:01:54;26.60;42.10
72576;DHT22;60613;48.658;2.328;2023-05-29T16:04:19;26.60;42.40
72576;DHT22;60613;48.658;2.328;2023-05-29T16:06:45;26.70;42.20
72576;DHT22;60613;48.658;2.328;2023-05-29T16:09:10;26.70;43.70
72576;DHT22;60613;48.658;2.328;2023-05-29T16:11:37;26.70;42.50
72576;DHT22;60613;48.658;2.328;2023-05-29T16:14:02;26.80;41.80
72576;DHT22;60613;48.658;2.328;2023-05-29T16:16:29;26.80;41.20
72576;DHT22;60613;48.658;2.328;2023-05-29T16:18:57;26.90;41.10
72576;DHT22;60613;48.658;2.328;2023-05-29T16:21:22;27.00;39.50
72576;DHT22;60613;48.658;2.328;2023-05-29T16:23:48;27.10;39.60
72576;DHT22;60613;48.658;2.328;2023-05-29T16:26:13;27.20;39.60
72576;DHT22;60613;48.658;2.328;2023-05-29T16:28:39;27.30;39.20
72576;DHT22;60613;48.658;2.328;2023-05-29T16:31:05;27.30;39.00
72576;DHT22;60613;48.658;2.328;2023-05-29T16:33:31;27.20;38.50
72576;DHT22;60613;48.658;2.328;2023-05-29T16:35:57;27.20;38.50
72576;DHT22;60613;48.658;2.328;2023-05-29T16:38:22;27.20;38.60
72576;DHT22;60613;48.658;2.328;2023-05-29T16:40:48;27.30;38.70
72576;DHT22;60613;48.658;2.328;2023-05-29T16:43:13;27.30;38.70
72576;DHT22;60613;48.658;2.328;2023-05-29T16:45:39;27.40;38.20
72576;DHT22;60613;48.658;2.328;2023-05-29T16:48:05;27.40;38.10
72576;DHT22;60613;48.658;2.328;2023-05-29T16:50:30;27.40;38.00
72576;DHT22;60613;48.658;2.328;2023-05-29T16:52:56;27.40;38.00
72576;DHT22;60613;48.658;2.328;2023-05-29T16:55:22;27.40;37.60
72576;DHT22;60613;48.658;2.328;2023-05-29T16:57:50;27.30;37.90
72576;DHT22;60613;48.658;2.328;2023-05-29T17:00:15;27.30;37.60
72576;DHT22;60613;48.658;2.328;2023-05-29T17:02:41;27.40;37.50
72576;DHT22;60613;48.658;2.328;2023-05-29T17:05:08;27.40;37.60
72576;DHT22;60613;48.658;2.328;2023-05-29T17:07:34;27.40;37.50
72576;DHT22;60613;48.658;2.328;2023-05-29T17:09:59;27.40;37.70
72576;DHT22;60613;48.658;2.328;2023-05-29T17:12:25;27.30;37.50
72576;DHT22;60613;48.658;2.328;2023-05-29T17:14:51;27.30;37.50
72576;DHT22;60613;48.658;2.328;2023-05-29T17:17:17;27.30;37.70
72576;DHT22;60613;48.658;2.328;2023-05-29T17:19:42;27.50;37.80
72576;DHT22;60613;48.658;2.328;2023-05-29T17:22:08;27.60;37.30
72576;DHT22;60613;48.658;2.328;2023-05-29T17:24:34;27.70;37.00
72576;DHT22;60613;48.658;2.328;2023-05-29T17:27:00;27.70;36.90
72576;DHT22;60613;48.658;2.328;2023-05-29T17:29:26;27.70;36.00
72576;DHT22;60613;48.658;2.328;2023-05-29T17:31:51;27.80;35.70
72576;DHT22;60613;48.658;2.328;2023-05-29T17:34:17;27.80;35.60
72576;DHT22;60613;48.658;2.328;2023-05-29T17:36:43;27.90;35.70
72576;DHT22;60613;48.658;2.328;2023-05-29T17:39:08;27.80;35.90
72576;DHT22;60613;48.658;2.328;2023-05-29T17:41:35;27.80;35.80
72576;DHT22;60613;48.658;2.328;2023-05-29T17:44:00;27.80;35.80
72576;DHT22;60613;48.658;2.328;2023-05-29T17:46:28;27.80;35.90
72576;DHT22;60613;48.658;2.328;2023-05-29T17:48:54;27.70;36.30
72576;DHT22;60613;48.658;2.328;2023-05-29T17:51:19;27.70;36.30
72576;DHT22;60613;48.658;2.328;2023-05-29T17:53:48;27.60;36.30
72576;DHT22;60613;48.658;2.328;2023-05-29T17:56:14;27.60;36.40
72576;DHT22;60613;48.658;2.328;2023-05-29T17:58:39;27.70;36.30
72576;DHT22;60613;48.658;2.328;2023-05-29T18:01:05;27.70;36.10
72576;DHT22;60613;48.658;2.328;2023-05-29T18:03:31;27.60;35.80
72576;DHT22;60613;48.658;2.328;2023-05-29T18:05:58;27.60;35.40
72576;DHT22;60613;48.658;2.328;2023-05-29T18:08:23;27.50;35.10
72576;DHT22;60613;48.658;2.328;2023-05-29T18:10:49;27.50;35.30
72576;DHT22;60613;48.658;2.328;2023-05-29T18:13:15;27.50;35.50
72576;DHT22;60613;48.658;2.328;2023-05-29T18:15:40;27.40;35.70
72576;DHT22;60613;48.658;2.328;2023-05-29T18:18:06;27.30;35.50
72576;DHT22;60613;48.658;2.328;2023-05-29T18:20:31;27.40;35.30
72576;DHT22;60613;48.658;2.328;2023-05-29T18:22:57;27.40;35.30
72576;DHT22;60613;48.658;2.328;2023-05-29T18:25:23;27.40;35.30
72576;DHT22;60613;48.658;2.328;2023-05-29T18:27:48;27.40;35.20
72576;DHT22;60613;48.658;2.328;2023-05-29T18:30:15;27.40;35.20
72576;DHT22;60613;48.658;2.328;2023-05-29T18:32:41;27.30;35.30
72576;DHT22;60613;48.658;2.328;2023-05-29T18:35:07;27.30;35.50
72576;DHT22;60613;48.658;2.328;2023-05-29T18:37:32;27.30;35.40
72576;DHT22;60613;48.658;2.328;2023-05-29T18:39:58;27.20;35.60
72576;DHT22;60613;48.658;2.328;2023-05-29T18:42:25;27.30;35.50
72576;DHT22;60613;48.658;2.328;2023-05-29T18:44:50;27.00;35.60
72576;DHT22;60613;48.658;2.328;2023-05-29T18:47:16;26.90;36.40
72576;DHT22;60613;48.658;2.328;2023-05-29T18:49:42;26.90;36.40
72576;DHT22;60613;48.658;2.328;2023-05-29T18:52:08;27.00;36.70
72576;DHT22;60613;48.658;2.328;2023-05-29T18:54:33;27.10;37.10
72576;DHT22;60613;48.658;2.328;2023-05-29T18:56:59;27.20;37.30
72576;DHT22;60613;48.658;2.328;2023-05-29T18:59:25;27.20;37.60
